sensor_id;sensor_type;location;lat;lon;timestamp;P1;durP1;ratioP1;P2;durP2;ratioP2
79025;SDS011;71097;44.760;37.726;2023-07-13T00:00:59;11.05;;;5.13;;
79025;SDS011;71097;44.760;37.726;2023-07-13T00:02:01;9.13;;;6.10;;
79025;SDS011;71097;44.760;37.726;2023-07-13T00:03:03;6.80;;;4.53;;
79025;SDS011;71097;44.760;37.726;2023-07-13T00:04:06;7.18;;;5.10;;
79025;SDS011;71097;44.760;37.726;2023-07-13T00:05:08;9.05;;;4.90;;
79025;SDS011;71097;44.760;37.726;2023-07-13T00:06:10;10.95;;;5.90;;
79025;SDS011;71097;44.760;37.726;2023-07-13T00:07:12;8.57;;;5.88;;
79025;SDS011;71097;44.760;37.726;2023-07-13T00:08:15;9.05;;;5.47;;
79025;SDS011;71097;44.760;37.726;2023-07-13T00:09:16;7.00;;;5.40;;
79025;SDS011;71097;44.760;37.726;2023-07-13T00:10:19;7.45;;;5.60;;
79025;SDS011;71097;44.760;37.726;2023-07-13T00:11:21;7.18;;;4.90;;
79025;SDS011;71097;44.760;37.726;2023-07-13T00:12:25;9.05;;;5.30;;
79025;SDS011;71097;44.760;37.726;2023-07-13T00:13:30;8.70;;;5.38;;
79025;SDS011;71097;44.760;37.726;2023-07-13T00:14:31;9.60;;;5.47;;
79025;SDS011;71097;44.760;37.726;2023-07-13T00:15:33;10.15;;;6.68;;
79025;SDS011;71097;44.760;37.726;2023-07-13T00:16:37;18.85;;;8.07;;
79025;SDS011;71097;44.760;37.726;2023-07-13T00:17:42;11.40;;;7.72;;
79025;SDS011;71097;44.760;37.726;2023-07-13T00:18:47;11.50;;;7.25;;
79025;SDS011;71097;44.760;37.726;2023-07-13T00:19:49;14.77;;;7.80;;
79025;SDS011;71097;44.760;37.726;2023-07-13T00:20:50;15.95;;;7.72;;
79025;SDS011;71097;44.760;37.726;2023-07-13T00:21:52;13.98;;;8.52;;
79025;SDS011;71097;44.760;37.726;2023-07-13T00:22:56;13.43;;;7.22;;
79025;SDS011;71097;44.760;37.726;2023-07-13T00:23:58;17.13;;;8.80;;
79025;SDS011;71097;44.760;37.726;2023-07-13T00:25:02;18.75;;;8.07;;
79025;SDS011;71097;44.760;37.726;2023-07-13T00:26:04;15.95;;;9.18;;
79025;SDS011;71097;44.760;37.726;2023-07-13T00:27:08;13.85;;;8.85;;
79025;SDS011;71097;44.760;37.726;2023-07-13T00:28:10;13.52;;;7.85;;
79025;SDS011;71097;44.760;37.726;2023-07-13T00:29:12;23.70;;;8.23;;
79025;SDS011;71097;44.760;37.726;2023-07-13T00:30:14;16.55;;;10.52;;
79025;SDS011;71097;44.760;37.726;2023-07-13T00:31:16;16.05;;;8.85;;
79025;SDS011;71097;44.760;37.726;2023-07-13T00:32:18;17.30;;;8.15;;
79025;SDS011;71097;44.760;37.726;2023-07-13T00:33:20;20.13;;;9.25;;
79025;SDS011;71097;44.760;37.726;2023-07-13T00:34:23;17.70;;;8.20;;
79025;SDS011;71097;44.760;37.726;2023-07-13T00:35:25;16.75;;;7.90;;
79025;SDS011;71097;44.760;37.726;2023-07-13T00:36:27;13.25;;;8.00;;
79025;SDS011;71097;44.760;37.726;2023-07-13T00:37:28;16.45;;;8.57;;
79025;SDS011;71097;44.760;37.726;2023-07-13T00:38:32;19.73;;;7.78;;
79025;SDS011;71097;44.760;37.726;2023-07-13T00:39:33;18.77;;;8.07;;
79025;SDS011;71097;44.760;37.726;2023-07-13T00:40:37;19.27;;;9.13;;
79025;SDS011;71097;44.760;37.726;2023-07-13T00:41:38;15.93;;;8.13;;
79025;SDS011;71097;44.760;37.726;2023-07-13T00:42:40;15.82;;;7.97;;
79025;SDS011;71097;44.760;37.726;2023-07-13T00:43:43;13.07;;;7.22;;
79025;SDS011;71097;44.760;37.726;2023-07-13T00:46:15;16.48;;;7.60;;
79025;SDS011;71097;44.760;37.726;2023-07-13T00:47:21;19.33;;;7.35;;
79025;SDS011;71097;44.760;37.726;2023-07-13T00:48:27;14.57;;;6.93;;
79025;SDS011;71097;44.760;37.726;2023-07-13T00:49:32;15.63;;;7.70;;
79025;SDS011;71097;44.760;37.726;2023-07-13T00:50:36;12.05;;;7.95;;
79025;SDS011;71097;44.760;37.726;2023-07-13T00:51:40;16.65;;;7.35;;
79025;SDS011;71097;44.760;37.726;2023-07-13T00:52:47;20.30;;;7.57;;
79025;SDS011;71097;44.760;37.726;2023-07-13T00:53:52;15.55;;;7.53;;
79025;SDS011;71097;44.760;37.726;2023-07-13T00:54:55;22.17;;;8.32;;
79025;SDS011;71097;44.760;37.726;2023-07-13T00:55:57;16.08;;;8.15;;
79025;SDS011;71097;44.760;37.726;2023-07-13T00:57:00;14.38;;;7.05;;
79025;SDS011;71097;44.760;37.726;2023-07-13T00:58:04;16.40;;;8.98;;
79025;SDS011;71097;44.760;37.726;2023-07-13T00:59:08;18.73;;;9.05;;
79025;SDS011;71097;44.760;37.726;2023-07-13T01:00:14;17.30;;;7.43;;
79025;SDS011;71097;44.760;37.726;2023-07-13T01:01:16;16.23;;;7.57;;
79025;SDS011;71097;44.760;37.726;2023-07-13T01:02:17;17.13;;;8.75;;
79025;SDS011;71097;44.760;37.726;2023-07-13T01:03:19;15.05;;;7.93;;
79025;SDS011;71097;44.760;37.726;2023-07-13T01:04:21;18.65;;;8.63;;
79025;SDS011;71097;44.760;37.726;2023-07-13T01:05:25;11.48;;;7.32;;
79025;SDS011;71097;44.760;37.726;2023-07-13T01:06:28;16.17;;;7.75;;
79025;SDS011;71097;44.760;37.726;2023-07-13T01:07:32;18.83;;;7.57;;
79025;SDS011;71097;44.760;37.726;2023-07-13T01:08:34;12.40;;;7.93;;
79025;SDS011;71097;44.760;37.726;2023-07-13T01:09:36;14.80;;;8.27;;
79025;SDS011;71097;44.760;37.726;2023-07-13T01:10:37;17.15;;;7.75;;
79025;SDS011;71097;44.760;37.726;2023-07-13T01:11:42;13.90;;;7.45;;
79025;SDS011;71097;44.760;37.726;2023-07-13T01:13:46;15.77;;;8.40;;
79025;SDS011;71097;44.760;37.726;2023-07-13T01:14:56;15.20;;;9.15;;
79025;SDS011;71097;44.760;37.726;2023-07-13T01:16:01;17.70;;;7.85;;
79025;SDS011;71097;44.760;37.726;2023-07-13T01:17:14;16.58;;;7.25;;
79025;SDS011;71097;44.760;37.726;2023-07-13T01:18:25;12.88;;;7.63;;
79025;SDS011;71097;44.760;37.726;2023-07-13T01:20:40;18.60;;;8.30;;
79025;SDS011;71097;44.760;37.726;2023-07-13T01:21:43;15.48;;;7.25;;
79025;SDS011;71097;44.760;37.726;2023-07-13T01:22:45;16.38;;;7.45;;
79025;SDS011;71097;44.760;37.726;2023-07-13T01:23:47;14.30;;;7.80;;
79025;SDS011;71097;44.760;37.726;2023-07-13T01:24:49;15.25;;;7.85;;
79025;SDS011;71097;44.760;37.726;2023-07-13T01:25:51;18.48;;;8.52;;
79025;SDS011;71097;44.760;37.726;2023-07-13T01:26:53;15.82;;;9.07;;
79025;SDS011;71097;44.760;37.726;2023-07-13T01:27:54;18.40;;;8.27;;
79025;SDS011;71097;44.760;37.726;2023-07-13T01:28:56;17.45;;;10.23;;
79025;SDS011;71097;44.760;37.726;2023-07-13T01:29:57;19.63;;;8.00;;
79025;SDS011;71097;44.760;37.726;2023-07-13T01:31:05;15.68;;;8.57;;
79025;SDS011;71097;44.760;37.726;2023-07-13T01:32:11;16.05;;;8.43;;
79025;SDS011;71097;44.760;37.726;2023-07-13T01:33:15;15.05;;;9.13;;
79025;SDS011;71097;44.760;37.726;2023-07-13T01:34:18;16.30;;;8.93;;
79025;SDS011;71097;44.760;37.726;2023-07-13T01:35:19;12.43;;;8.57;;
79025;SDS011;71097;44.760;37.726;2023-07-13T01:36:21;13.82;;;8.00;;
79025;SDS011;71097;44.760;37.726;2023-07-13T01:37:23;14.30;;;8.52;;
79025;SDS011;71097;44.760;37.726;2023-07-13T01:38:27;15.98;;;8.43;;
79025;SDS011;71097;44.760;37.726;2023-07-13T01:39:28;16.20;;;8.90;;
79025;SDS011;71097;44.760;37.726;2023-07-13T01:40:30;13.18;;;8.75;;
79025;SDS011;71097;44.760;37.726;2023-07-13T01:41:32;12.93;;;8.13;;
79025;SDS011;71097;44.760;37.726;2023-07-13T01:42:38;12.75;;;8.13;;
79025;SDS011;71097;44.760;37.726;2023-07-13T01:43:40;10.95;;;7.88;;
79025;SDS011;71097;44.760;37.726;2023-07-13T01:44:42;17.63;;;7.65;;
79025;SDS011;71097;44.760;37.726;2023-07-13T01:45:44;14.23;;;8.63;;
79025;SDS011;71097;44.760;37.726;2023-07-13T01:46:45;12.43;;;7.72;;
79025;SDS011;71097;44.760;37.726;2023-07-13T01:47:47;18.10;;;8.82;;
79025;SDS011;71097;44.760;37.726;2023-07-13T01:48:54;16.48;;;8.45;;
79025;SDS011;71097;44.760;37.726;2023-07-13T01:49:57;14.93;;;9.23;;
79025;SDS011;71097;44.760;37.726;2023-07-13T01:51:00;14.45;;;10.00;;
79025;SDS011;71097;44.760;37.726;2023-07-13T01:52:01;17.27;;;8.95;;
79025;SDS011;71097;44.760;37.726;2023-07-13T01:53:03;13.05;;;7.88;;
79025;SDS011;71097;44.760;37.726;2023-07-13T01:54:04;17.42;;;8.82;;
79025;SDS011;71097;44.760;37.726;2023-07-13T01:55:06;16.60;;;10.50;;
79025;SDS011;71097;44.760;37.726;2023-07-13T01:56:08;12.32;;;8.55;;
79025;SDS011;71097;44.760;37.726;2023-07-13T01:57:10;16.30;;;9.98;;
79025;SDS011;71097;44.760;37.726;2023-07-13T01:58:11;15.27;;;9.13;;
79025;SDS011;71097;44.760;37.726;2023-07-13T01:59:14;14.55;;;10.32;;
79025;SDS011;71097;44.760;37.726;2023-07-13T02:00:16;19.00;;;11.57;;
79025;SDS011;71097;44.760;37.726;2023-07-13T02:01:18;15.85;;;11.85;;
79025;SDS011;71097;44.760;37.726;2023-07-13T02:02:20;19.00;;;10.73;;
79025;SDS011;71097;44.760;37.726;2023-07-13T02:03:21;33.67;;;13.90;;
79025;SDS011;71097;44.760;37.726;2023-07-13T02:04:23;27.02;;;12.75;;
79025;SDS011;71097;44.760;37.726;2023-07-13T02:05:26;24.50;;;12.20;;
79025;SDS011;71097;44.760;37.726;2023-07-13T02:06:28;31.25;;;14.25;;
79025;SDS011;71097;44.760;37.726;2023-07-13T02:07:30;29.17;;;13.05;;
79025;SDS011;71097;44.760;37.726;2023-07-13T02:08:34;24.52;;;11.82;;
79025;SDS011;71097;44.760;37.726;2023-07-13T02:09:36;25.00;;;12.45;;
79025;SDS011;71097;44.760;37.726;2023-07-13T02:10:38;17.92;;;11.02;;
79025;SDS011;71097;44.760;37.726;2023-07-13T02:11:39;22.60;;;12.48;;
79025;SDS011;71097;44.760;37.726;2023-07-13T02:12:41;26.85;;;12.85;;
79025;SDS011;71097;44.760;37.726;2023-07-13T02:13:43;19.00;;;12.68;;
79025;SDS011;71097;44.760;37.726;2023-07-13T02:14:50;27.15;;;15.70;;
79025;SDS011;71097;44.760;37.726;2023-07-13T02:15:51;21.70;;;15.27;;
79025;SDS011;71097;44.760;37.726;2023-07-13T02:16:53;22.55;;;14.57;;
79025;SDS011;71097;44.760;37.726;2023-07-13T02:17:55;18.60;;;13.75;;
79025;SDS011;71097;44.760;37.726;2023-07-13T02:18:58;21.55;;;14.38;;
79025;SDS011;71097;44.760;37.726;2023-07-13T02:19:59;23.88;;;13.93;;
79025;SDS011;71097;44.760;37.726;2023-07-13T02:21:01;22.40;;;16.50;;
79025;SDS011;71097;44.760;37.726;2023-07-13T02:22:04;23.70;;;16.50;;
79025;SDS011;71097;44.760;37.726;2023-07-13T02:23:06;21.17;;;15.13;;
79025;SDS011;71097;44.760;37.726;2023-07-13T02:24:07;21.80;;;16.33;;
79025;SDS011;71097;44.760;37.726;2023-07-13T02:25:09;20.15;;;14.68;;
79025;SDS011;71097;44.760;37.726;2023-07-13T02:26:11;23.23;;;13.93;;
79025;SDS011;71097;44.760;37.726;2023-07-13T02:27:12;21.52;;;13.35;;
79025;SDS011;71097;44.760;37.726;2023-07-13T02:28:15;22.30;;;14.20;;
79025;SDS011;71097;44.760;37.726;2023-07-13T02:29:16;17.95;;;12.25;;
79025;SDS011;71097;44.760;37.726;2023-07-13T02:30:20;16.70;;;12.02;;
79025;SDS011;71097;44.760;37.726;2023-07-13T02:31:23;17.52;;;12.52;;
79025;SDS011;71097;44.760;37.726;2023-07-13T02:32:28;19.88;;;12.35;;
79025;SDS011;71097;44.760;37.726;2023-07-13T02:33:30;17.05;;;10.20;;
79025;SDS011;71097;44.760;37.726;2023-07-13T02:34:31;20.20;;;10.57;;
79025;SDS011;71097;44.760;37.726;2023-07-13T02:35:33;15.30;;;9.00;;
79025;SDS011;71097;44.760;37.726;2023-07-13T02:36:34;16.80;;;8.55;;
79025;SDS011;71097;44.760;37.726;2023-07-13T02:37:36;14.10;;;8.50;;
79025;SDS011;71097;44.760;37.726;2023-07-13T02:38:38;15.32;;;8.95;;
79025;SDS011;71097;44.760;37.726;2023-07-13T02:39:39;18.17;;;9.15;;
79025;SDS011;71097;44.760;37.726;2023-07-13T02:40:42;19.90;;;9.07;;
79025;SDS011;71097;44.760;37.726;2023-07-13T02:41:43;15.30;;;7.90;;
79025;SDS011;71097;44.760;37.726;2023-07-13T02:42:46;14.27;;;8.48;;
79025;SDS011;71097;44.760;37.726;2023-07-13T02:43:48;18.20;;;9.32;;
79025;SDS011;71097;44.760;37.726;2023-07-13T02:44:49;15.70;;;9.07;;
79025;SDS011;71097;44.760;37.726;2023-07-13T02:45:52;16.42;;;8.93;;
79025;SDS011;71097;44.760;37.726;2023-07-13T02:46:54;14.30;;;8.90;;
79025;SDS011;71097;44.760;37.726;2023-07-13T02:47:55;17.58;;;8.93;;
79025;SDS011;71097;44.760;37.726;2023-07-13T02:48:57;15.65;;;8.57;;
79025;SDS011;71097;44.760;37.726;2023-07-13T02:49:59;17.38;;;8.20;;
79025;SDS011;71097;44.760;37.726;2023-07-13T02:51:02;12.38;;;9.07;;
79025;SDS011;71097;44.760;37.726;2023-07-13T02:52:03;18.35;;;8.90;;
79025;SDS011;71097;44.760;37.726;2023-07-13T02:53:06;18.13;;;9.60;;
79025;SDS011;71097;44.760;37.726;2023-07-13T02:54:08;16.27;;;9.32;;
79025;SDS011;71097;44.760;37.726;2023-07-13T02:55:11;16.77;;;8.70;;
79025;SDS011;71097;44.760;37.726;2023-07-13T02:56:12;15.77;;;9.38;;
79025;SDS011;71097;44.760;37.726;2023-07-13T02:57:14;14.25;;;9.20;;
79025;SDS011;71097;44.760;37.726;2023-07-13T02:58:15;16.02;;;9.15;;
79025;SDS011;71097;44.760;37.726;2023-07-13T02:59:17;14.05;;;9.18;;
79025;SDS011;71097;44.760;37.726;2023-07-13T03:00:19;15.10;;;9.50;;
79025;SDS011;71097;44.760;37.726;2023-07-13T03:01:21;15.38;;;9.77;;
79025;SDS011;71097;44.760;37.726;2023-07-13T03:02:22;16.35;;;9.65;;
79025;SDS011;71097;44.760;37.726;2023-07-13T03:03:24;16.77;;;10.23;;
79025;SDS011;71097;44.760;37.726;2023-07-13T03:04:26;14.68;;;9.55;;
79025;SDS011;71097;44.760;37.726;2023-07-13T03:05:27;15.82;;;10.85;;
79025;SDS011;71097;44.760;37.726;2023-07-13T03:06:31;16.42;;;10.13;;
79025;SDS011;71097;44.760;37.726;2023-07-13T03:08:35;17.60;;;9.52;;
79025;SDS011;71097;44.760;37.726;2023-07-13T03:09:36;18.35;;;10.40;;
79025;SDS011;71097;44.760;37.726;2023-07-13T03:10:40;14.98;;;9.50;;
79025;SDS011;71097;44.760;37.726;2023-07-13T03:11:44;17.35;;;10.80;;
79025;SDS011;71097;44.760;37.726;2023-07-13T03:12:54;18.75;;;10.13;;
79025;SDS011;71097;44.760;37.726;2023-07-13T03:13:59;17.77;;;11.82;;
79025;SDS011;71097;44.760;37.726;2023-07-13T03:15:02;19.00;;;11.25;;
79025;SDS011;71097;44.760;37.726;2023-07-13T03:16:05;24.27;;;11.45;;
79025;SDS011;71097;44.760;37.726;2023-07-13T03:17:07;14.68;;;10.10;;
79025;SDS011;71097;44.760;37.726;2023-07-13T03:18:12;16.38;;;9.75;;
79025;SDS011;71097;44.760;37.726;2023-07-13T03:19:14;14.20;;;10.23;;
79025;SDS011;71097;44.760;37.726;2023-07-13T03:20:20;18.25;;;10.30;;
79025;SDS011;71097;44.760;37.726;2023-07-13T03:21:21;17.33;;;10.43;;
79025;SDS011;71097;44.760;37.726;2023-07-13T03:22:23;15.80;;;9.52;;
79025;SDS011;71097;44.760;37.726;2023-07-13T03:23:30;19.88;;;9.85;;
79025;SDS011;71097;44.760;37.726;2023-07-13T03:24:34;19.52;;;9.95;;
79025;SDS011;71097;44.760;37.726;2023-07-13T03:25:36;16.98;;;9.80;;
79025;SDS011;71097;44.760;37.726;2023-07-13T03:26:38;18.92;;;10.13;;
79025;SDS011;71097;44.760;37.726;2023-07-13T03:27:40;19.08;;;9.52;;
79025;SDS011;71097;44.760;37.726;2023-07-13T03:28:43;16.63;;;9.85;;
79025;SDS011;71097;44.760;37.726;2023-07-13T03:29:50;17.40;;;9.80;;
79025;SDS011;71097;44.760;37.726;2023-07-13T03:31:03;16.63;;;9.23;;
79025;SDS011;71097;44.760;37.726;2023-07-13T03:32:07;22.42;;;10.07;;
79025;SDS011;71097;44.760;37.726;2023-07-13T03:33:12;16.67;;;10.50;;
79025;SDS011;71097;44.760;37.726;2023-07-13T03:34:13;20.48;;;10.70;;
79025;SDS011;71097;44.760;37.726;2023-07-13T03:35:16;20.17;;;10.07;;
79025;SDS011;71097;44.760;37.726;2023-07-13T03:36:18;25.05;;;9.88;;
79025;SDS011;71097;44.760;37.726;2023-07-13T03:37:23;20.88;;;9.70;;
79025;SDS011;71097;44.760;37.726;2023-07-13T03:38:26;16.30;;;9.57;;
79025;SDS011;71097;44.760;37.726;2023-07-13T03:39:28;12.82;;;9.52;;
79025;SDS011;71097;44.760;37.726;2023-07-13T03:40:32;17.20;;;8.98;;
79025;SDS011;71097;44.760;37.726;2023-07-13T03:41:34;17.40;;;9.25;;
79025;SDS011;71097;44.760;37.726;2023-07-13T03:42:35;16.10;;;8.93;;
79025;SDS011;71097;44.760;37.726;2023-07-13T03:43:37;17.20;;;9.43;;
79025;SDS011;71097;44.760;37.726;2023-07-13T03:44:39;17.35;;;9.45;;
79025;SDS011;71097;44.760;37.726;2023-07-13T03:45:41;14.55;;;9.15;;
79025;SDS011;71097;44.760;37.726;2023-07-13T03:46:43;15.32;;;8.50;;
79025;SDS011;71097;44.760;37.726;2023-07-13T03:47:45;20.50;;;10.27;;
79025;SDS011;71097;44.760;37.726;2023-07-13T03:48:47;17.73;;;8.98;;
79025;SDS011;71097;44.760;37.726;2023-07-13T03:49:49;19.65;;;9.68;;
79025;SDS011;71097;44.760;37.726;2023-07-13T03:50:50;13.02;;;9.15;;
79025;SDS011;71097;44.760;37.726;2023-07-13T03:51:53;17.25;;;8.63;;
79025;SDS011;71097;44.760;37.726;2023-07-13T03:52:54;17.52;;;10.73;;
79025;SDS011;71097;44.760;37.726;2023-07-13T03:53:56;16.08;;;8.82;;
79025;SDS011;71097;44.760;37.726;2023-07-13T03:54:58;20.27;;;9.40;;
79025;SDS011;71097;44.760;37.726;2023-07-13T03:55:59;11.93;;;8.38;;
79025;SDS011;71097;44.760;37.726;2023-07-13T03:57:01;15.65;;;9.10;;
79025;SDS011;71097;44.760;37.726;2023-07-13T03:58:27;16.45;;;9.05;;
79025;SDS011;71097;44.760;37.726;2023-07-13T03:59:34;15.15;;;8.00;;
79025;SDS011;71097;44.760;37.726;2023-07-13T04:00:36;11.80;;;8.45;;
79025;SDS011;71097;44.760;37.726;2023-07-13T04:01:37;13.27;;;8.77;;
79025;SDS011;71097;44.760;37.726;2023-07-13T04:02:39;14.85;;;8.77;;
79025;SDS011;71097;44.760;37.726;2023-07-13T04:03:42;17.05;;;10.30;;
79025;SDS011;71097;44.760;37.726;2023-07-13T04:04:48;17.70;;;8.82;;
79025;SDS011;71097;44.760;37.726;2023-07-13T04:05:50;19.50;;;10.15;;
79025;SDS011;71097;44.760;37.726;2023-07-13T04:06:51;13.52;;;9.73;;
79025;SDS011;71097;44.760;37.726;2023-07-13T04:07:54;17.52;;;9.77;;
79025;SDS011;71097;44.760;37.726;2023-07-13T04:08:56;13.18;;;9.85;;
79025;SDS011;71097;44.760;37.726;2023-07-13T04:10:00;13.55;;;9.23;;
79025;SDS011;71097;44.760;37.726;2023-07-13T04:11:02;16.70;;;9.15;;
79025;SDS011;71097;44.760;37.726;2023-07-13T04:12:05;11.70;;;9.52;;
79025;SDS011;71097;44.760;37.726;2023-07-13T04:13:06;12.05;;;7.90;;
79025;SDS011;71097;44.760;37.726;2023-07-13T04:14:09;13.65;;;8.05;;
79025;SDS011;71097;44.760;37.726;2023-07-13T04:15:11;14.98;;;8.18;;
79025;SDS011;71097;44.760;37.726;2023-07-13T04:16:13;12.32;;;8.57;;
79025;SDS011;71097;44.760;37.726;2023-07-13T04:17:15;13.48;;;8.20;;
79025;SDS011;71097;44.760;37.726;2023-07-13T04:18:17;10.73;;;8.05;;
79025;SDS011;71097;44.760;37.726;2023-07-13T04:20:22;11.57;;;7.20;;
79025;SDS011;71097;44.760;37.726;2023-07-13T04:21:26;10.43;;;7.05;;
79025;SDS011;71097;44.760;37.726;2023-07-13T04:22:28;9.82;;;6.97;;
79025;SDS011;71097;44.760;37.726;2023-07-13T04:23:30;9.15;;;7.10;;
79025;SDS011;71097;44.760;37.726;2023-07-13T04:24:31;9.73;;;8.05;;
79025;SDS011;71097;44.760;37.726;2023-07-13T04:25:33;9.13;;;7.05;;
79025;SDS011;71097;44.760;37.726;2023-07-13T04:26:34;9.10;;;7.80;;
79025;SDS011;71097;44.760;37.726;2023-07-13T04:27:45;10.68;;;6.65;;
79025;SDS011;71097;44.760;37.726;2023-07-13T04:28:47;10.10;;;6.35;;
79025;SDS011;71097;44.760;37.726;2023-07-13T04:29:49;8.98;;;8.07;;
79025;SDS011;71097;44.760;37.726;2023-07-13T04:30:50;8.10;;;6.78;;
79025;SDS011;71097;44.760;37.726;2023-07-13T04:31:52;9.68;;;7.18;;
79025;SDS011;71097;44.760;37.726;2023-07-13T04:32:53;8.68;;;6.88;;
79025;SDS011;71097;44.760;37.726;2023-07-13T04:33:55;8.73;;;7.45;;
79025;SDS011;71097;44.760;37.726;2023-07-13T04:34:56;8.75;;;7.70;;
79025;SDS011;71097;44.760;37.726;2023-07-13T04:36:00;9.05;;;7.38;;
79025;SDS011;71097;44.760;37.726;2023-07-13T04:37:02;10.20;;;6.97;;
79025;SDS011;71097;44.760;37.726;2023-07-13T04:38:05;9.25;;;7.93;;
79025;SDS011;71097;44.760;37.726;2023-07-13T04:39:07;12.32;;;7.97;;
79025;SDS011;71097;44.760;37.726;2023-07-13T04:40:09;9.55;;;7.10;;
79025;SDS011;71097;44.760;37.726;2023-07-13T04:41:13;19.88;;;15.82;;
79025;SDS011;71097;44.760;37.726;2023-07-13T04:42:15;10.65;;;7.50;;
79025;SDS011;71097;44.760;37.726;2023-07-13T04:43:17;13.00;;;9.15;;
79025;SDS011;71097;44.760;37.726;2023-07-13T04:44:19;30.98;;;28.08;;
79025;SDS011;71097;44.760;37.726;2023-07-13T04:45:21;15.38;;;13.38;;
79025;SDS011;71097;44.760;37.726;2023-07-13T04:47:26;11.35;;;6.90;;
79025;SDS011;71097;44.760;37.726;2023-07-13T04:48:30;10.18;;;7.47;;
79025;SDS011;71097;44.760;37.726;2023-07-13T04:49:32;13.82;;;7.22;;
79025;SDS011;71097;44.760;37.726;2023-07-13T04:50:36;9.40;;;6.40;;
79025;SDS011;71097;44.760;37.726;2023-07-13T04:51:38;8.77;;;6.68;;
79025;SDS011;71097;44.760;37.726;2023-07-13T04:52:45;11.63;;;7.30;;
79025;SDS011;71097;44.760;37.726;2023-07-13T04:53:47;9.80;;;6.95;;
79025;SDS011;71097;44.760;37.726;2023-07-13T04:54:48;7.97;;;6.72;;
79025;SDS011;71097;44.760;37.726;2023-07-13T04:55:50;7.80;;;6.88;;
79025;SDS011;71097;44.760;37.726;2023-07-13T04:56:51;9.98;;;7.05;;
79025;SDS011;71097;44.760;37.726;2023-07-13T04:57:53;9.75;;;8.15;;
79025;SDS011;71097;44.760;37.726;2023-07-13T04:58:54;10.32;;;6.97;;
79025;SDS011;71097;44.760;37.726;2023-07-13T04:59:56;10.40;;;7.38;;
79025;SDS011;71097;44.760;37.726;2023-07-13T05:01:02;9.27;;;7.20;;
79025;SDS011;71097;44.760;37.726;2023-07-13T05:02:05;10.65;;;7.93;;
79025;SDS011;71097;44.760;37.726;2023-07-13T05:03:07;10.20;;;7.65;;
79025;SDS011;71097;44.760;37.726;2023-07-13T05:04:08;8.13;;;6.97;;
79025;SDS011;71097;44.760;37.726;2023-07-13T05:05:10;8.75;;;7.25;;
79025;SDS011;71097;44.760;37.726;2023-07-13T05:06:11;8.43;;;7.25;;
79025;SDS011;71097;44.760;37.726;2023-07-13T05:07:14;8.82;;;7.00;;
79025;SDS011;71097;44.760;37.726;2023-07-13T05:08:16;9.13;;;7.10;;
79025;SDS011;71097;44.760;37.726;2023-07-13T05:09:17;9.18;;;7.32;;
79025;SDS011;71097;44.760;37.726;2023-07-13T05:10:19;8.80;;;7.05;;
79025;SDS011;71097;44.760;37.726;2023-07-13T05:11:21;7.22;;;6.53;;
79025;SDS011;71097;44.760;37.726;2023-07-13T05:12:23;9.07;;;6.80;;
79025;SDS011;71097;44.760;37.726;2023-07-13T05:13:24;9.80;;;6.85;;
79025;SDS011;71097;44.760;37.726;2023-07-13T05:14:26;7.43;;;6.63;;
79025;SDS011;71097;44.760;37.726;2023-07-13T05:15:33;8.55;;;7.60;;
79025;SDS011;71097;44.760;37.726;2023-07-13T05:16:34;8.25;;;7.07;;
79025;SDS011;71097;44.760;37.726;2023-07-13T05:17:36;10.05;;;7.53;;
79025;SDS011;71097;44.760;37.726;2023-07-13T05:18:39;9.32;;;7.10;;
79025;SDS011;71097;44.760;37.726;2023-07-13T05:19:41;8.13;;;7.25;;
79025;SDS011;71097;44.760;37.726;2023-07-13T05:20:42;8.98;;;7.70;;
79025;SDS011;71097;44.760;37.726;2023-07-13T05:21:44;9.85;;;7.25;;
79025;SDS011;71097;44.760;37.726;2023-07-13T05:22:46;11.40;;;6.90;;
79025;SDS011;71097;44.760;37.726;2023-07-13T05:23:47;8.48;;;7.05;;
79025;SDS011;71097;44.760;37.726;2023-07-13T05:24:49;9.00;;;7.93;;
79025;SDS011;71097;44.760;37.726;2023-07-13T05:25:50;11.85;;;7.53;;
79025;SDS011;71097;44.760;37.726;2023-07-13T05:26:52;8.18;;;6.75;;
79025;SDS011;71097;44.760;37.726;2023-07-13T05:27:54;11.38;;;6.55;;
79025;SDS011;71097;44.760;37.726;2023-07-13T05:28:55;8.82;;;7.03;;
79025;SDS011;71097;44.760;37.726;2023-07-13T05:29:57;9.32;;;6.85;;
79025;SDS011;71097;44.760;37.726;2023-07-13T05:30:58;8.52;;;7.57;;
79025;SDS011;71097;44.760;37.726;2023-07-13T05:32:00;11.90;;;7.10;;
79025;SDS011;71097;44.760;37.726;2023-07-13T05:33:01;8.60;;;6.65;;
79025;SDS011;71097;44.760;37.726;2023-07-13T05:34:03;9.55;;;6.88;;
79025;SDS011;71097;44.760;37.726;2023-07-13T05:35:05;8.93;;;7.47;;
79025;SDS011;71097;44.760;37.726;2023-07-13T05:36:07;9.13;;;7.53;;
79025;SDS011;71097;44.760;37.726;2023-07-13T05:37:09;9.90;;;7.07;;
79025;SDS011;71097;44.760;37.726;2023-07-13T05:38:11;7.55;;;6.35;;
79025;SDS011;71097;44.760;37.726;2023-07-13T05:39:12;9.20;;;6.60;;
79025;SDS011;71097;44.760;37.726;2023-07-13T05:40:14;8.02;;;6.85;;
79025;SDS011;71097;44.760;37.726;2023-07-13T05:41:15;8.20;;;6.25;;
79025;SDS011;71097;44.760;37.726;2023-07-13T05:42:17;8.00;;;6.35;;
79025;SDS011;71097;44.760;37.726;2023-07-13T05:43:18;9.00;;;6.07;;
79025;SDS011;71097;44.760;37.726;2023-07-13T05:44:20;9.40;;;6.57;;
79025;SDS011;71097;44.760;37.726;2023-07-13T05:45:22;9.27;;;6.25;;
79025;SDS011;71097;44.760;37.726;2023-07-13T05:46:23;7.75;;;6.10;;
79025;SDS011;71097;44.760;37.726;2023-07-13T05:47:25;7.13;;;5.85;;
79025;SDS011;71097;44.760;37.726;2023-07-13T05:48:27;8.52;;;6.18;;
79025;SDS011;71097;44.760;37.726;2023-07-13T05:49:29;10.57;;;6.82;;
79025;SDS011;71097;44.760;37.726;2023-07-13T05:50:31;7.88;;;6.25;;
79025;SDS011;71097;44.760;37.726;2023-07-13T05:51:32;9.73;;;6.45;;
79025;SDS011;71097;44.760;37.726;2023-07-13T05:52:34;9.90;;;6.10;;
79025;SDS011;71097;44.760;37.726;2023-07-13T05:53:35;8.52;;;6.20;;
79025;SDS011;71097;44.760;37.726;2023-07-13T05:54:37;9.15;;;6.18;;
79025;SDS011;71097;44.760;37.726;2023-07-13T05:55:44;8.93;;;5.97;;
79025;SDS011;71097;44.760;37.726;2023-07-13T05:56:51;8.25;;;5.95;;
79025;SDS011;71097;44.760;37.726;2023-07-13T05:57:52;7.15;;;5.68;;
79025;SDS011;71097;44.760;37.726;2023-07-13T05:58:54;8.73;;;6.53;;
79025;SDS011;71097;44.760;37.726;2023-07-13T05:59:55;9.73;;;6.07;;
79025;SDS011;71097;44.760;37.726;2023-07-13T06:01:03;9.15;;;6.40;;
79025;SDS011;71097;44.760;37.726;2023-07-13T06:02:07;9.88;;;6.53;;
79025;SDS011;71097;44.760;37.726;2023-07-13T06:03:10;11.20;;;7.85;;
79025;SDS011;71097;44.760;37.726;2023-07-13T06:04:12;11.88;;;6.95;;
79025;SDS011;71097;44.760;37.726;2023-07-13T06:05:13;11.00;;;6.68;;
79025;SDS011;71097;44.760;37.726;2023-07-13T06:06:15;11.70;;;6.72;;
79025;SDS011;71097;44.760;37.726;2023-07-13T06:07:17;10.27;;;6.15;;
79025;SDS011;71097;44.760;37.726;2023-07-13T06:08:19;11.13;;;6.65;;
79025;SDS011;71097;44.760;37.726;2023-07-13T06:09:20;9.02;;;6.22;;
79025;SDS011;71097;44.760;37.726;2023-07-13T06:10:22;11.55;;;6.32;;
79025;SDS011;71097;44.760;37.726;2023-07-13T06:11:24;9.88;;;6.50;;
79025;SDS011;71097;44.760;37.726;2023-07-13T06:12:28;8.50;;;6.47;;
79025;SDS011;71097;44.760;37.726;2023-07-13T06:13:29;9.40;;;6.38;;
79025;SDS011;71097;44.760;37.726;2023-07-13T06:14:31;9.63;;;6.07;;